Time;durP1;ratioP1;P1;durP2;ratioP2;P2;SDS_P1;SDS_P2;PMS_P1;PMS_P2;Temp;Humidity;BMP_temperature;BMP_pressure;BME280_temperature;BME280_humidity;BME280_pressure;Samples;Min_cycle;Max_cycle;Signal;HPM_P1;HPM_P2
2022/04/26 03:36:12;;;;;;;15.73;6.78;;;;;;;;;;5019316;28;20029;-70
2022/04/26 03:38:41;;;;;;;21.25;7.07;;;;;;;;;;5021073;28;20025;-70
2022/04/26 03:41:07;;;;;;;16.60;7.90;;;;;;;;;;5023037;28;20025;-70
2022/04/26 03:43:32;;;;;;;15.25;6.47;;;;;;;;;;5016397;28;20418;-69
2022/04/26 03:45:58;;;;;;;15.82;7.20;;;;;;;;;;5017452;28;20421;-69
2022/04/26 03:48:23;;;;;;;19.88;8.40;;;;;;;;;;5018366;28;20271;-70
2022/04/26 03:50:48;;;;;;;15.60;7.05;;;;;;;;;;5015907;28;20729;-70
2022/04/26 03:53:13;;;;;;;18.55;7.25;;;;;;;;;;5015728;28;20353;-70
2022/04/26 03:55:38;;;;;;;27.48;8.02;;;;;;;;;;5015583;28;20723;-69
2022/04/26 03:58:03;;;;;;;16.05;8.05;;;;;;;;;;5016503;28;20613;-71
2022/04/26 04:00:28;;;;;;;14.98;7.13;;;;;;;;;;5015266;28;20021;-70
2022/04/26 04:02:54;;;;;;;22.27;8.73;;;;;;;;;;5023942;28;20064;-70
2022/04/26 04:05:20;;;;;;;16.42;7.95;;;;;;;;;;5013704;28;20259;-69
2022/04/26 04:07:46;;;;;;;18.95;7.72;;;;;;;;;;5015213;28;20397;-69
2022/04/26 04:10:11;;;;;;;20.35;8.38;;;;;;;;;;5013777;28;20088;-71
2022/04/26 04:12:36;;;;;;;21.95;7.80;;;;;;;;;;5025094;28;20277;-70
2022/04/26 04:15:01;;;;;;;15.48;7.85;;;;;;;;;;5015466;28;20290;-69
2022/04/26 04:17:27;;;;;;;20.15;8.43;;;;;;;;;;5006881;28;20328;-69
2022/04/26 04:19:52;;;;;;;20.00;7.75;;;;;;;;;;5012176;28;20034;-69
2022/04/26 04:22:17;;;;;;;18.20;8.73;;;;;;;;;;5014678;28;20018;-68
2022/04/26 04:24:43;;;;;;;21.30;8.82;;;;;;;;;;5020731;28;20025;-68
2022/04/26 04:27:10;;;;;;;17.75;7.90;;;;;;;;;;5015390;28;20176;-69
2022/04/26 04:29:35;;;;;;;29.35;8.85;;;;;;;;;;5021887;28;20113;-68
2022/04/26 04:32:01;;;;;;;20.48;9.18;;;;;;;;;;5013709;28;20116;-68
2022/04/26 04:34:26;;;;;;;26.30;8.27;;;;;;;;;;5020244;28;20037;-69
2022/04/26 04:36:51;;;;;;;19.53;8.50;;;;;;;;;;5000889;28;20566;-68
2022/04/26 04:39:20;;;;;;;19.17;9.02;;;;;;;;;;5004548;28;20357;-68
2022/04/26 04:41:46;;;;;;;23.67;8.65;;;;;;;;;;5017803;28;20293;-69
2022/04/26 04:44:11;;;;;;;19.30;8.93;;;;;;;;;;5014268;28;20017;-71
2022/04/26 04:46:36;;;;;;;24.88;8.70;;;;;;;;;;5019200;28;20021;-73
2022/04/26 04:49:02;;;;;;;22.80;9.33;;;;;;;;;;5001434;28;20328;-70
2022/04/26 04:51:27;;;;;;;19.92;9.35;;;;;;;;;;5021552;28;20266;-72
2022/04/26 04:53:52;;;;;;;21.17;9.27;;;;;;;;;;5015515;28;20100;-69
2022/04/26 04:56:17;;;;;;;21.08;9.32;;;;;;;;;;5020790;28;20033;-71
2022/04/26 04:58:42;;;;;;;17.38;8.07;;;;;;;;;;5016552;28;20262;-70
2022/04/26 05:01:08;;;;;;;21.48;8.75;;;;;;;;;;5019808;28;20510;-71
2022/04/26 05:03:33;;;;;;;23.47;8.93;;;;;;;;;;5020509;28;20040;-72
2022/04/26 05:05:58;;;;;;;20.08;8.50;;;;;;;;;;5029347;28;20262;-72
2022/04/26 05:08:24;;;;;;;21.77;9.90;;;;;;;;;;5027688;28;20028;-71
2022/04/26 05:10:50;;;;;;;20.88;8.38;;;;;;;;;;5031452;28;20119;-71
2022/04/26 05:13:15;;;;;;;20.67;9.30;;;;;;;;;;5021147;28;20029;-72
2022/04/26 05:15:42;;;;;;;23.95;9.63;;;;;;;;;;5023473;28;20713;-70
2022/04/26 05:18:07;;;;;;;25.13;9.32;;;;;;;;;;5022349;28;20040;-71
2022/04/26 05:20:32;;;;;;;21.17;9.52;;;;;;;;;;5028646;28;20029;-70
2022/04/26 05:25:42;;;;;;;23.70;9.02;;;;;;;;;;5034149;28;20319;-71
2022/04/26 05:28:07;;;;;;;26.63;10.48;;;;;;;;;;5022330;28;20034;-71
2022/04/26 05:30:32;;;;;;;26.63;9.70;;;;;;;;;;5024215;28;20266;-70
2022/04/26 05:32:57;;;;;;;20.43;9.60;;;;;;;;;;5035586;28;20035;-69
2022/04/26 05:35:22;;;;;;;24.27;8.93;;;;;;;;;;5035150;28;20278;-70
2022/04/26 05:37:48;;;;;;;25.67;11.05;;;;;;;;;;5025416;28;20271;-69
2022/04/26 05:40:13;;;;;;;27.30;10.48;;;;;;;;;;5018618;28;20383;-69
2022/04/26 05:42:38;;;;;;;26.83;9.52;;;;;;;;;;5024609;28;20034;-70
2022/04/26 05:45:04;;;;;;;27.17;11.05;;;;;;;;;;5018022;28;20310;-71
2022/04/26 05:47:29;;;;;;;28.13;11.52;;;;;;;;;;5012512;28;20040;-70
2022/04/26 05:49:55;;;;;;;30.43;10.97;;;;;;;;;;5030643;28;20036;-70
2022/04/26 05:52:20;;;;;;;26.10;10.90;;;;;;;;;;5021660;28;20401;-70
2022/04/26 05:54:45;;;;;;;23.90;10.65;;;;;;;;;;5034373;28;20033;-70
2022/04/26 05:57:10;;;;;;;26.50;10.60;;;;;;;;;;5022926;28;20033;-70
2022/04/26 05:59:36;;;;;;;32.80;12.35;;;;;;;;;;5017913;28;20267;-70
2022/04/26 06:02:01;;;;;;;28.40;13.60;;;;;;;;;;5014447;28;20773;-70
2022/04/26 06:04:27;;;;;;;25.30;11.75;;;;;;;;;;5025193;28;20434;-70
2022/04/26 06:06:52;;;;;;;36.45;13.50;;;;;;;;;;5017479;28;20026;-70
2022/04/26 06:09:17;;;;;;;49.35;14.05;;;;;;;;;;5022447;28;20041;-70
2022/04/26 06:11:43;;;;;;;28.10;12.88;;;;;;;;;;5024186;28;20057;-70
2022/04/26 06:14:08;;;;;;;31.17;12.80;;;;;;;;;;5019047;28;20032;-71
2022/04/26 06:16:33;;;;;;;41.13;15.40;;;;;;;;;;5019162;28;20387;-70
2022/04/26 06:18:59;;;;;;;34.92;13.25;;;;;;;;;;5018089;28;20072;-70
2022/04/26 06:21:24;;;;;;;33.80;13.90;;;;;;;;;;5020249;28;20367;-71
2022/04/26 06:23:49;;;;;;;35.55;15.02;;;;;;;;;;5021402;28;20028;-71
2022/04/26 06:26:14;;;;;;;38.88;14.18;;;;;;;;;;5029579;28;20184;-71
2022/04/26 06:28:40;;;;;;;28.77;12.73;;;;;;;;;;5014901;28;20084;-71
2022/04/26 06:31:05;;;;;;;34.95;14.10;;;;;;;;;;5019398;28;20292;-70
2022/04/26 06:33:30;;;;;;;35.85;14.48;;;;;;;;;;5024629;28;20025;-70
2022/04/26 06:35:56;;;;;;;27.95;13.27;;;;;;;;;;5013256;28;20390;-70
2022/04/26 06:38:23;;;;;;;28.17;13.37;;;;;;;;;;5019829;28;20106;-70
2022/04/26 06:40:49;;;;;;;32.85;14.57;;;;;;;;;;5017372;28;20290;-70
2022/04/26 06:43:14;;;;;;;35.80;15.25;;;;;;;;;;5025129;28;20032;-71
2022/04/26 06:45:39;;;;;;;37.00;14.15;;;;;;;;;;5013446;28;20014;-71
2022/04/26 06:48:08;;;;;;;34.95;14.77;;;;;;;;;;5021022;28;20036;-71
2022/04/26 06:50:33;;;;;;;26.80;14.00;;;;;;;;;;5022411;28;20017;-71
2022/04/26 06:52:59;;;;;;;26.73;14.20;;;;;;;;;;5017768;28;20343;-70
2022/04/26 06:55:24;;;;;;;30.73;14.60;;;;;;;;;;5024260;28;20025;-70
2022/04/26 06:57:49;;;;;;;32.45;14.13;;;;;;;;;;5011429;28;20038;-70
2022/04/26 07:00:15;;;;;;;33.83;13.27;;;;;;;;;;5023931;28;20411;-70
2022/04/26 07:02:40;;;;;;;27.83;13.45;;;;;;;;;;5018734;28;20026;-69
2022/04/26 07:05:05;;;;;;;31.80;13.50;;;;;;;;;;5026069;28;20120;-71
2022/04/26 07:07:31;;;;;;;34.45;14.07;;;;;;;;;;5022894;28;20025;-70
2022/04/26 07:09:56;;;;;;;30.57;15.00;;;;;;;;;;5018090;28;20412;-71
2022/04/26 07:12:21;;;;;;;33.38;14.85;;;;;;;;;;5026724;28;20293;-71
2022/04/26 07:14:46;;;;;;;28.95;13.27;;;;;;;;;;5030886;28;20372;-70
2022/04/26 07:17:11;;;;;;;31.43;13.53;;;;;;;;;;5019282;28;20444;-70
2022/04/26 07:19:36;;;;;;;25.05;13.75;;;;;;;;;;5021103;28;20270;-70
2022/04/26 07:22:06;;;;;;;31.73;13.85;;;;;;;;;;5022211;28;20033;-70
2022/04/26 07:24:31;;;;;;;32.80;13.50;;;;;;;;;;5026734;28;20028;-70
2022/04/26 07:26:57;;;;;;;29.45;13.55;;;;;;;;;;5022208;28;20029;-71
2022/04/26 07:29:22;;;;;;;23.40;12.60;;;;;;;;;;5019358;28;20046;-70
2022/04/26 07:31:47;;;;;;;28.77;11.70;;;;;;;;;;5015669;28;20262;-70
2022/04/26 07:34:21;;;;;;;28.33;13.77;;;;;;;;;;5006214;28;20277;-71
2022/04/26 07:36:47;;;;;;;23.77;12.90;;;;;;;;;;5016834;28;20111;-70
2022/04/26 07:39:14;;;;;;;26.90;13.57;;;;;;;;;;5017376;28;20476;-70
2022/04/26 07:41:39;;;;;;;33.67;13.38;;;;;;;;;;5019498;28;20502;-71
2022/04/26 07:44:04;;;;;;;29.40;12.83;;;;;;;;;;5023865;28;20048;-71
2022/04/26 07:46:30;;;;;;;27.95;11.65;;;;;;;;;;5021687;28;20390;-71
2022/04/26 07:48:55;;;;;;;32.03;12.33;;;;;;;;;;5016490;28;20022;-71
2022/04/26 07:51:21;;;;;;;34.35;12.32;;;;;;;;;;5021733;28;20633;-71
2022/04/26 07:53:46;;;;;;;30.52;12.70;;;;;;;;;;5020802;28;20021;-70
2022/04/26 07:56:11;;;;;;;24.83;11.73;;;;;;;;;;5023585;28;20034;-71
2022/04/26 07:58:36;;;;;;;28.88;13.30;;;;;;;;;;5015499;28;20416;-71
2022/04/26 08:01:02;;;;;;;23.50;10.37;;;;;;;;;;5022783;28;20110;-70
2022/04/26 08:03:27;;;;;;;26.35;12.23;;;;;;;;;;5019764;28;20265;-71
2022/04/26 08:05:53;;;;;;;27.80;12.73;;;;;;;;;;5024336;28;20495;-70
2022/04/26 08:08:18;;;;;;;28.55;12.15;;;;;;;;;;5014350;28;20036;-70
2022/04/26 08:10:43;;;;;;;26.65;12.77;;;;;;;;;;5016168;28;20017;-71
2022/04/26 08:13:09;;;;;;;26.63;12.30;;;;;;;;;;5021297;28;20157;-70
2022/04/26 08:15:34;;;;;;;25.17;11.98;;;;;;;;;;5023196;28;20033;-71
2022/04/26 08:17:59;;;;;;;24.90;11.70;;;;;;;;;;5020781;28;20072;-71
2022/04/26 08:20:26;;;;;;;28.70;12.60;;;;;;;;;;5019276;28;20588;-71
2022/04/26 08:22:51;;;;;;;29.42;13.10;;;;;;;;;;5014366;28;20072;-70
2022/04/26 08:28:01;;;;;;;23.92;11.60;;;;;;;;;;5026054;28;20697;-70
2022/04/26 08:30:26;;;;;;;22.38;11.38;;;;;;;;;;5019739;28;20550;-70
2022/04/26 08:32:52;;;;;;;19.60;10.15;;;;;;;;;;5016147;28;20113;-71
2022/04/26 08:35:19;;;;;;;23.40;11.68;;;;;;;;;;5017278;28;20104;-70
2022/04/26 08:37:44;;;;;;;24.55;11.05;;;;;;;;;;5020320;28;20068;-69
2022/04/26 08:40:10;;;;;;;21.70;10.85;;;;;;;;;;5020837;28;20168;-71
2022/04/26 08:42:36;;;;;;;30.15;10.70;;;;;;;;;;5017140;28;20022;-71
2022/04/26 08:45:03;;;;;;;19.65;9.77;;;;;;;;;;5016492;28;20519;-70
2022/04/26 08:52:57;;;;;;;28.08;10.55;;;;;;;;;;5018044;28;20072;-70
2022/04/26 08:55:22;;;;;;;23.23;11.82;;;;;;;;;;5017400;28;20036;-70
2022/04/26 08:57:47;;;;;;;51.27;11.40;;;;;;;;;;5017692;28;20431;-70
2022/04/26 09:00:13;;;;;;;22.85;10.55;;;;;;;;;;5021394;28;20762;-70
2022/04/26 09:02:39;;;;;;;20.35;9.98;;;;;;;;;;5017857;28;20530;-70
2022/04/26 09:05:14;;;;;;;25.50;11.50;;;;;;;;;;5020303;28;20025;-71
2022/04/26 09:07:40;;;;;;;20.88;10.43;;;;;;;;;;5029857;28;20467;-70
2022/04/26 09:10:06;;;;;;;21.80;11.25;;;;;;;;;;5019134;28;20124;-71
2022/04/26 09:12:31;;;;;;;19.58;9.93;;;;;;;;;;5027888;28;20132;-71
2022/04/26 09:14:56;;;;;;;20.05;9.32;;;;;;;;;;5023264;28;20484;-70
2022/04/26 09:17:21;;;;;;;26.13;10.65;;;;;;;;;;5029774;28;20024;-71
2022/04/26 09:19:52;;;;;;;18.23;9.27;;;;;;;;;;5020867;28;22103;-70
2022/04/26 09:22:18;;;;;;;20.45;9.13;;;;;;;;;;5020197;28;20014;-71
2022/04/26 09:25:03;;;;;;;27.48;10.60;;;;;;;;;;5019179;28;20021;-70
2022/04/26 09:27:29;;;;;;;23.90;9.20;;;;;;;;;;5018757;28;20018;-69
2022/04/26 09:29:54;;;;;;;22.13;9.18;;;;;;;;;;5023629;28;20022;-68
2022/04/26 09:32:19;;;;;;;17.10;9.40;;;;;;;;;;5023334;28;20033;-69
2022/04/26 09:34:45;;;;;;;16.40;9.45;;;;;;;;;;5021222;28;20017;-70
2022/04/26 09:37:11;;;;;;;21.13;10.45;;;;;;;;;;5019448;28;20041;-70
2022/04/26 09:39:39;;;;;;;20.85;9.95;;;;;;;;;;5034481;28;20094;-70
2022/04/26 09:42:04;;;;;;;18.48;9.45;;;;;;;;;;5016871;28;20033;-69
2022/04/26 09:44:30;;;;;;;20.70;8.60;;;;;;;;;;5024229;28;20021;-69
2022/04/26 09:46:55;;;;;;;14.05;8.18;;;;;;;;;;5029700;28;20258;-69
2022/04/26 09:49:21;;;;;;;12.45;7.25;;;;;;;;;;5020485;28;20521;-69
2022/04/26 09:51:48;;;;;;;13.88;7.72;;;;;;;;;;5026197;28;20131;-70
2022/04/26 09:54:13;;;;;;;19.15;8.10;;;;;;;;;;5026268;28;20034;-70
2022/04/26 09:56:41;;;;;;;16.38;6.50;;;;;;;;;;5021722;28;20483;-69
2022/04/26 09:59:06;;;;;;;24.17;7.45;;;;;;;;;;5020593;28;20544;-69
2022/04/26 10:01:37;;;;;;;12.63;6.80;;;;;;;;;;5006075;28;20048;-70
2022/04/26 10:04:03;;;;;;;14.80;6.82;;;;;;;;;;5018902;28;20511;-69
2022/04/26 10:06:35;;;;;;;15.50;7.30;;;;;;;;;;5033568;28;20025;-69
2022/04/26 10:09:02;;;;;;;13.02;6.60;;;;;;;;;;5016411;28;20040;-70
2022/04/26 10:11:27;;;;;;;21.10;7.53;;;;;;;;;;5022456;28;20076;-70
2022/04/26 10:13:53;;;;;;;15.57;6.63;;;;;;;;;;5027425;28;20060;-70
2022/04/26 10:16:19;;;;;;;12.07;6.57;;;;;;;;;;5023535;28;20048;-73
2022/04/26 10:18:45;;;;;;;12.75;6.28;;;;;;;;;;5021890;28;20017;-68
2022/04/26 10:21:30;;;;;;;11.68;6.45;;;;;;;;;;5017540;28;20073;-70
2022/04/26 10:24:01;;;;;;;13.38;6.28;;;;;;;;;;5005237;28;20124;-70
2022/04/26 10:26:27;;;;;;;13.25;6.57;;;;;;;;;;5018698;28;20064;-70
2022/04/26 10:29:02;;;;;;;11.68;6.15;;;;;;;;;;5026431;28;20133;-70
2022/04/26 10:31:41;;;;;;;8.70;5.40;;;;;;;;;;5029397;28;20184;-70
2022/04/26 10:34:23;;;;;;;15.80;7.20;;;;;;;;;;5021453;28;20029;-69
2022/04/26 10:36:49;;;;;;;11.02;6.25;;;;;;;;;;5025823;28;20119;-69
2022/04/26 10:39:18;;;;;;;9.50;6.00;;;;;;;;;;5020661;28;20132;-70
2022/04/26 10:41:44;;;;;;;11.98;6.65;;;;;;;;;;5022616;28;20040;-70
2022/04/26 10:44:31;;;;;;;12.45;6.40;;;;;;;;;;5023660;28;20018;-70
2022/04/26 10:47:02;;;;;;;17.63;6.82;;;;;;;;;;5025735;28;20018;-70
2022/04/26 10:49:33;;;;;;;10.00;5.88;;;;;;;;;;5022483;28;20055;-70
2022/04/26 10:51:58;;;;;;;9.15;5.57;;;;;;;;;;5025722;28;20024;-70
2022/04/26 10:54:42;;;;;;;10.73;5.35;;;;;;;;;;5026986;28;20034;-70
2022/04/26 10:57:07;;;;;;;9.90;5.60;;;;;;;;;;5026108;28;20029;-70
2022/04/26 10:59:33;;;;;;;8.52;5.70;;;;;;;;;;5019838;28;20079;-70
2022/04/26 11:01:58;;;;;;;7.43;5.00;;;;;;;;;;5018747;28;20439;-70
2022/04/26 11:04:24;;;;;;;11.70;5.93;;;;;;;;;;5029144;28;20312;-70
2022/04/26 11:06:49;;;;;;;10.27;6.35;;;;;;;;;;5026129;28;20029;-69
2022/04/26 11:09:15;;;;;;;6.20;5.13;;;;;;;;;;5021419;28;20105;-69
2022/04/26 11:11:50;;;;;;;14.57;6.07;;;;;;;;;;5019976;28;20320;-70
2022/04/26 11:14:17;;;;;;;11.60;6.25;;;;;;;;;;5015874;28;20025;-70
2022/04/26 11:16:58;;;;;;;8.13;5.55;;;;;;;;;;5024702;28;20017;-70
2022/04/26 11:19:32;;;;;;;10.00;6.00;;;;;;;;;;5019793;28;20029;-70
2022/04/26 11:22:08;;;;;;;7.85;6.18;;;;;;;;;;5014548;28;20033;-71
2022/04/26 11:30:02;;;;;;;;;;;;;;;;;;5019519;28;20020;-68
2022/04/26 11:32:31;;;;;;;16.20;6.97;;;;;;;;;;5016644;28;19916;-70
2022/04/26 11:34:56;;;;;;;11.88;6.95;;;;;;;;;;5029385;28;20033;-70
2022/04/26 11:37:21;;;;;;;13.50;7.78;;;;;;;;;;5017553;28;20025;-70
2022/04/26 11:39:46;;;;;;;12.57;7.03;;;;;;;;;;5012229;28;20029;-70
2022/04/26 11:42:12;;;;;;;14.70;7.20;;;;;;;;;;5024942;28;20040;-70
2022/04/26 11:44:54;;;;;;;8.95;7.00;;;;;;;;;;5019367;28;20303;-70
2022/04/26 11:47:19;;;;;;;10.80;6.38;;;;;;;;;;5019314;28;20111;-70
2022/04/26 11:49:45;;;;;;;12.27;7.25;;;;;;;;;;5033188;28;20033;-70
2022/04/26 11:52:10;;;;;;;11.20;6.63;;;;;;;;;;5014754;28;20034;-70
2022/04/26 11:54:38;;;;;;;13.60;6.38;;;;;;;;;;5021232;28;20273;-70
2022/04/26 11:57:04;;;;;;;8.82;6.55;;;;;;;;;;5014283;28;20121;-70
2022/04/26 11:59:29;;;;;;;8.18;6.07;;;;;;;;;;5021165;28;20028;-70
2022/04/26 12:01:55;;;;;;;10.33;6.60;;;;;;;;;;5021635;28;20029;-70
2022/04/26 12:04:20;;;;;;;9.45;6.45;;;;;;;;;;5026347;28;20025;-68
2022/04/26 12:06:45;;;;;;;10.60;6.37;;;;;;;;;;5013814;28;20017;-68
2022/04/26 12:09:12;;;;;;;12.90;6.50;;;;;;;;;;5026875;28;20324;-68
2022/04/26 12:11:40;;;;;;;8.23;6.45;;;;;;;;;;5017837;28;20025;-68
2022/04/26 12:14:06;;;;;;;10.82;6.72;;;;;;;;;;5017922;28;20017;-68
2022/04/26 12:16:32;;;;;;;9.43;6.38;;;;;;;;;;5028334;28;20071;-67
2022/04/26 12:18:59;;;;;;;10.48;6.40;;;;;;;;;;5008672;28;20037;-67
2022/04/26 12:21:28;;;;;;;9.73;6.63;;;;;;;;;;5018506;28;20040;-68
2022/04/26 12:24:12;;;;;;;15.25;6.15;;;;;;;;;;5024388;28;20033;-69
2022/04/26 12:26:48;;;;;;;9.38;5.93;;;;;;;;;;5016576;28;20436;-68
2022/04/26 12:29:13;;;;;;;13.15;6.07;;;;;;;;;;5014168;28;20149;-68
2022/04/26 12:31:42;;;;;;;10.57;6.43;;;;;;;;;;5019311;28;20107;-68
2022/04/26 12:34:14;;;;;;;8.80;5.32;;;;;;;;;;5023114;28;20029;-68
2022/04/26 12:36:59;;;;;;;11.15;6.85;;;;;;;;;;5026928;28;20063;-68
2022/04/26 12:39:25;;;;;;;10.88;6.32;;;;;;;;;;5014513;28;20036;-68
2022/04/26 12:41:56;;;;;;;7.90;6.32;;;;;;;;;;5018181;28;20456;-68
2022/04/26 12:44:21;;;;;;;7.30;6.03;;;;;;;;;;5025451;28;20032;-68
2022/04/26 12:50:27;;;;;;;14.17;6.50;;;;;;;;;;5017168;28;20014;-67
2022/04/26 12:50:31;;;;;;;8.98;5.82;;;;;;;;;;5020401;28;20853;-68
2022/04/26 12:53:00;;;;;;;11.32;6.30;;;;;;;;;;4947116;28;20031;-68
2022/04/26 12:55:27;;;;;;;14.40;7.18;;;;;;;;;;4935280;28;20031;-68
2022/04/26 12:57:53;;;;;;;9.32;6.22;;;;;;;;;;4984430;28;20041;-68
2022/04/26 13:00:20;;;;;;;11.10;6.70;;;;;;;;;;5017305;28;20037;-68
2022/04/26 13:02:49;;;;;;;11.18;6.53;;;;;;;;;;5022630;28;20117;-68
2022/04/26 13:05:15;;;;;;;8.90;6.65;;;;;;;;;;5018584;28;20033;-68
2022/04/26 13:07:40;;;;;;;8.73;7.07;;;;;;;;;;5015950;28;20022;-68
2022/04/26 13:10:05;;;;;;;8.75;5.72;;;;;;;;;;5021504;28;20415;-68
2022/04/26 13:12:31;;;;;;;15.88;5.97;;;;;;;;;;5027527;28;20022;-68
2022/04/26 13:14:57;;;;;;;11.02;5.78;;;;;;;;;;5021162;28;20029;-67
2022/04/26 13:17:22;;;;;;;8.63;5.72;;;;;;;;;;5026389;28;20455;-68
2022/04/26 13:19:47;;;;;;;9.75;5.78;;;;;;;;;;5028362;28;20458;-68
2022/04/26 13:22:15;;;;;;;7.90;5.47;;;;;;;;;;5019587;28;20403;-68
2022/04/26 13:24:40;;;;;;;11.60;6.10;;;;;;;;;;5028704;28;20740;-67
2022/04/26 13:27:06;;;;;;;7.75;5.57;;;;;;;;;;5025992;28;20042;-69
2022/04/26 13:29:32;;;;;;;8.52;5.72;;;;;;;;;;5017344;28;20304;-68
2022/04/26 13:31:58;;;;;;;10.80;5.20;;;;;;;;;;5016089;28;20037;-68
2022/04/26 13:34:23;;;;;;;7.50;5.20;;;;;;;;;;5023119;28;20025;-67
2022/04/26 13:36:49;;;;;;;8.03;5.80;;;;;;;;;;5018056;28;20037;-69
2022/04/26 13:39:14;;;;;;;9.38;6.05;;;;;;;;;;5011411;28;20029;-67
2022/04/26 13:41:39;;;;;;;8.47;5.73;;;;;;;;;;5021160;28;20516;-68
2022/04/26 13:44:04;;;;;;;9.80;5.20;;;;;;;;;;5021066;28;20064;-69
2022/04/26 13:46:30;;;;;;;14.27;6.27;;;;;;;;;;5018342;28;20056;-67
2022/04/26 13:48:55;;;;;;;7.90;5.10;;;;;;;;;;5017077;28;20818;-68
2022/04/26 13:51:23;;;;;;;6.88;5.25;;;;;;;;;;5021761;28;20020;-68
2022/04/26 13:53:48;;;;;;;6.45;5.47;;;;;;;;;;5021229;28;20029;-67
2022/04/26 13:56:13;;;;;;;11.50;4.95;;;;;;;;;;5024198;28;20044;-68
2022/04/26 13:58:39;;;;;;;8.80;5.70;;;;;;;;;;5027953;28;20104;-67
2022/04/26 14:01:04;;;;;;;7.35;4.72;;;;;;;;;;5028000;28;20033;-68
2022/04/26 14:03:30;;;;;;;12.93;5.60;;;;;;;;;;5023026;28;20051;-68
2022/04/26 14:05:55;;;;;;;10.43;5.70;;;;;;;;;;5030313;28;20108;-68
2022/04/26 14:08:20;;;;;;;8.83;6.10;;;;;;;;;;5022366;28;20372;-68
2022/04/26 14:10:45;;;;;;;10.90;5.23;;;;;;;;;;5020297;28;20025;-67
2022/04/26 14:13:10;;;;;;;9.93;5.75;;;;;;;;;;5017679;28;20348;-67
2022/04/26 14:23:59;;;;;;;8.65;4.45;;;;;;;;;;5020291;28;20383;-69
2022/04/26 14:26:24;;;;;;;11.18;5.40;;;;;;;;;;5027963;28;20036;-69
2022/04/26 14:28:49;;;;;;;7.38;5.15;;;;;;;;;;5009841;28;20190;-70
2022/04/26 14:31:14;;;;;;;9.67;5.90;;;;;;;;;;5022677;28;20034;-70
2022/04/26 14:33:39;;;;;;;9.38;4.93;;;;;;;;;;5017088;28;20290;-70
2022/04/26 14:36:05;;;;;;;9.68;5.10;;;;;;;;;;5017077;28;20423;-70
2022/04/26 14:38:30;;;;;;;9.35;4.97;;;;;;;;;;5025084;28;20031;-70
2022/04/26 14:40:55;;;;;;;13.10;5.50;;;;;;;;;;5016224;28;20045;-70
2022/04/26 14:43:21;;;;;;;10.33;5.43;;;;;;;;;;5015298;28;20018;-70
2022/04/26 14:45:46;;;;;;;7.07;5.72;;;;;;;;;;5014858;28;20021;-70
2022/04/26 14:48:12;;;;;;;7.50;5.60;;;;;;;;;;5020041;28;20349;-69
2022/04/26 14:50:38;;;;;;;7.22;5.30;;;;;;;;;;5015298;28;20306;-69
2022/04/26 14:53:03;;;;;;;9.15;5.25;;;;;;;;;;5025836;28;20187;-70
2022/04/26 14:55:28;;;;;;;6.10;5.50;;;;;;;;;;5017184;28;20033;-70
2022/04/26 14:57:53;;;;;;;6.93;4.90;;;;;;;;;;5015870;28;20033;-69
2022/04/26 15:00:18;;;;;;;13.27;5.43;;;;;;;;;;5018143;28;20026;-70
2022/04/26 15:02:44;;;;;;;10.73;5.60;;;;;;;;;;5024306;28;20025;-70
2022/04/26 15:05:09;;;;;;;10.23;5.43;;;;;;;;;;5016983;28;20108;-70
2022/04/26 15:09:42;;;;;;;12.38;5.68;;;;;;;;;;5025482;28;20316;-69
2022/04/26 15:10:21;;;;;;;6.45;5.13;;;;;;;;;;5006312;28;20496;-69
2022/04/26 15:18:14;;;;;;;7.95;5.43;;;;;;;;;;5030783;28;20032;-69
2022/04/26 15:20:42;;;;;;;8.13;5.07;;;;;;;;;;5015125;28;20026;-69
2022/04/26 15:23:07;;;;;;;8.55;5.15;;;;;;;;;;5022996;28;20251;-69
2022/04/26 15:25:35;;;;;;;8.88;5.38;;;;;;;;;;5020156;28;20027;-70
2022/04/26 15:28:01;;;;;;;7.43;4.88;;;;;;;;;;5015649;28;20422;-69
2022/04/26 15:30:27;;;;;;;6.68;4.63;;;;;;;;;;5015544;28;20021;-69
2022/04/26 15:32:52;;;;;;;7.03;5.03;;;;;;;;;;5030037;28;20029;-69
2022/04/26 15:35:17;;;;;;;7.00;4.80;;;;;;;;;;5027708;28;20048;-69
2022/04/26 15:37:43;;;;;;;6.07;4.70;;;;;;;;;;5029269;28;20067;-69
2022/04/26 15:40:09;;;;;;;6.18;5.22;;;;;;;;;;5037436;28;20061;-69
2022/04/26 15:42:34;;;;;;;6.60;4.78;;;;;;;;;;5025095;28;20519;-69
2022/04/26 15:45:00;;;;;;;8.43;4.68;;;;;;;;;;5020292;28;20133;-69
2022/04/26 15:47:25;;;;;;;13.38;5.53;;;;;;;;;;5029581;28;20017;-69
2022/04/26 15:49:50;;;;;;;6.93;4.90;;;;;;;;;;5021844;28;20030;-69
2022/04/26 15:52:16;;;;;;;8.02;4.85;;;;;;;;;;5014975;28;20456;-69
2022/04/26 15:54:43;;;;;;;9.23;5.57;;;;;;;;;;5018741;28;20026;-68
2022/04/26 15:57:09;;;;;;;7.95;5.50;;;;;;;;;;5016174;28;20113;-69
2022/04/26 15:59:35;;;;;;;7.22;5.20;;;;;;;;;;5020313;28;20033;-69
2022/04/26 16:02:00;;;;;;;8.68;5.90;;;;;;;;;;5017896;28;20021;-68
2022/04/26 16:04:25;;;;;;;7.50;5.50;;;;;;;;;;5018060;28;20037;-69
2022/04/26 16:06:50;;;;;;;7.80;5.30;;;;;;;;;;5021126;28;20020;-68
2022/04/26 16:20:30;;;;;;;9.00;5.07;;;;;;;;;;5020738;28;20040;-68
2022/04/26 16:22:56;;;;;;;5.70;3.88;;;;;;;;;;5017401;28;20032;-68
2022/04/26 16:25:22;;;;;;;6.15;4.70;;;;;;;;;;5028396;28;20032;-68
2022/04/26 16:27:48;;;;;;;7.50;4.60;;;;;;;;;;5015678;28;20033;-69
2022/04/26 16:30:13;;;;;;;7.63;5.50;;;;;;;;;;5015146;28;22522;-68
2022/04/26 16:32:39;;;;;;;8.40;4.97;;;;;;;;;;5014907;28;20025;-68
2022/04/26 16:35:08;;;;;;;7.40;4.68;;;;;;;;;;5021699;28;20301;-69
2022/04/26 16:37:33;;;;;;;6.72;4.68;;;;;;;;;;5017066;28;20020;-68
2022/04/26 16:39:58;;;;;;;8.90;4.57;;;;;;;;;;5000308;28;20029;-68
2022/04/26 16:42:23;;;;;;;10.68;4.88;;;;;;;;;;5005199;28;20036;-69
2022/04/26 16:44:48;;;;;;;6.47;4.30;;;;;;;;;;5016102;28;20029;-69
2022/04/26 16:47:14;;;;;;;7.47;4.80;;;;;;;;;;5024846;28;20026;-69
2022/04/26 16:49:41;;;;;;;6.80;4.38;;;;;;;;;;5028399;28;20071;-69
2022/04/26 16:52:07;;;;;;;5.75;3.85;;;;;;;;;;5015731;28;20033;-69
2022/04/26 16:54:32;;;;;;;5.23;4.30;;;;;;;;;;5018157;28;21000;-68
2022/04/26 16:56:58;;;;;;;4.55;3.85;;;;;;;;;;5024372;28;20033;-68
2022/04/26 16:59:24;;;;;;;8.95;3.85;;;;;;;;;;5018732;28;20025;-68
2022/04/26 17:01:50;;;;;;;6.57;3.65;;;;;;;;;;5015491;28;20014;-69
2022/04/26 17:04:16;;;;;;;8.65;4.40;;;;;;;;;;5018864;28;20460;-70
2022/04/26 17:06:41;;;;;;;5.77;3.70;;;;;;;;;;5016657;28;20040;-71
2022/04/26 17:09:07;;;;;;;7.43;3.75;;;;;;;;;;5014486;28;20267;-70
2022/04/26 17:11:42;;;;;;;10.05;3.33;;;;;;;;;;5004223;28;20027;-68
2022/04/26 17:14:08;;;;;;;6.07;3.42;;;;;;;;;;5014236;28;20029;-71
2022/04/26 17:16:33;;;;;;;5.82;3.53;;;;;;;;;;5018631;28;20029;-70
2022/04/26 17:18:58;;;;;;;5.03;3.38;;;;;;;;;;5024777;28;20029;-70
2022/04/26 17:21:24;;;;;;;3.53;3.22;;;;;;;;;;5022306;28;20032;-70
2022/04/26 17:23:49;;;;;;;7.47;3.45;;;;;;;;;;5019422;28;20026;-70
2022/04/26 17:26:15;;;;;;;6.63;3.67;;;;;;;;;;5026485;28;20447;-71
2022/04/26 17:28:40;;;;;;;4.77;3.43;;;;;;;;;;5017304;28;20029;-71
2022/04/26 17:31:06;;;;;;;4.68;3.53;;;;;;;;;;5023875;28;20033;-71
2022/04/26 17:33:31;;;;;;;4.32;3.13;;;;;;;;;;5018441;28;20183;-70
2022/04/26 17:35:57;;;;;;;3.78;3.47;;;;;;;;;;5015927;28;21900;-70
2022/04/26 17:38:22;;;;;;;6.68;3.25;;;;;;;;;;5017862;28;20032;-71
2022/04/26 17:40:47;;;;;;;5.43;3.25;;;;;;;;;;5015211;28;20037;-69
2022/04/26 17:43:13;;;;;;;5.35;3.53;;;;;;;;;;5020614;28;20641;-70
2022/04/26 17:45:40;;;;;;;6.07;3.28;;;;;;;;;;4997229;28;20013;-69
2022/04/26 17:48:05;;;;;;;5.28;3.33;;;;;;;;;;5017531;28;20100;-70
2022/04/26 17:50:30;;;;;;;8.03;3.70;;;;;;;;;;4998936;28;20106;-70
2022/04/26 17:58:23;;;;;;;6.13;3.22;;;;;;;;;;5016212;28;20041;-69
2022/04/26 18:00:49;;;;;;;6.72;3.50;;;;;;;;;;5019336;28;20018;-70
2022/04/26 18:03:14;;;;;;;8.07;3.43;;;;;;;;;;5016925;28;20021;-69
2022/04/26 18:05:40;;;;;;;3.80;3.40;;;;;;;;;;5023212;28;20353;-70
2022/04/26 18:08:05;;;;;;;5.93;3.25;;;;;;;;;;5014898;28;20095;-68
2022/04/26 18:10:31;;;;;;;5.78;3.15;;;;;;;;;;5019964;28;20399;-68
2022/04/26 18:12:56;;;;;;;3.38;3.05;;;;;;;;;;5017506;28;20391;-68
2022/04/26 18:15:21;;;;;;;5.10;3.80;;;;;;;;;;5004574;28;22633;-68
2022/04/26 18:17:47;;;;;;;5.97;3.55;;;;;;;;;;5013150;28;20091;-68
2022/04/26 18:20:12;;;;;;;6.07;3.38;;;;;;;;;;5017282;28;20026;-68
2022/04/26 18:22:38;;;;;;;8.77;4.20;;;;;;;;;;5013931;28;20025;-68
2022/04/26 18:25:03;;;;;;;6.05;4.47;;;;;;;;;;5019607;28;20271;-68
2022/04/26 18:27:29;;;;;;;7.35;4.45;;;;;;;;;;5012764;28;20026;-68
2022/04/26 18:29:54;;;;;;;6.45;3.63;;;;;;;;;;5016434;28;20025;-68
2022/04/26 18:32:19;;;;;;;8.75;4.32;;;;;;;;;;5018326;28;20029;-68
2022/04/26 18:34:44;;;;;;;8.23;4.30;;;;;;;;;;5009629;28;20116;-68
2022/04/26 18:37:09;;;;;;;8.38;4.35;;;;;;;;;;5010616;28;20024;-68
2022/04/26 18:39:35;;;;;;;8.52;4.40;;;;;;;;;;5014679;28;20025;-68
2022/04/26 18:42:00;;;;;;;8.00;4.10;;;;;;;;;;5014721;28;20534;-68
2022/04/26 18:44:25;;;;;;;7.20;3.58;;;;;;;;;;5003012;28;20387;-68
2022/04/26 18:46:50;;;;;;;4.35;3.55;;;;;;;;;;5013581;28;20032;-68
2022/04/26 18:49:16;;;;;;;7.30;4.25;;;;;;;;;;5022824;28;20104;-68